Terminal Aerodrome Forecast
Issued by NWS Glasgow, MT

Current Version | Previous Version | Text Only | Print | Product List | Glossary On
Versions: 1 2 3 4 5 6 7 8 9 10 11 12 13 14 15 16
000
FTUS45 KGGW 261131
TAFGGW
TAF
KGGW 261131Z 2612/2712 12006KT 5SM -SN SCT015 OVC035
     FM261600 29007KT P6SM OVC035
     FM270400 03007KT P6SM SCT035 OVC050
     FM270600 05008KT P6SM VCSH SCT018 OVC030=

USA.gov is the U.S. government's official web portal to all federal, state and local government web resources and services.